Time;durP1;ratioP1;P1;durP2;ratioP2;P2;SDS_P1;SDS_P2;PMS_P1;PMS_P2;Temp;Humidity;BMP_temperature;BMP_pressure;BME280_temperature;BME280_humidity;BME280_pressure;Samples;Min_cycle;Max_cycle;Signal;HPM_P1;HPM_P2
2021/12/25 00:01:27;;;;;;;58.15;45.65;;;;;;;5.65;75.08;100790.34;4969165;28;20508;-86
2021/12/25 00:03:56;;;;;;;63.30;47.42;;;;;;;5.26;75.25;100744.59;4987053;28;20120;-84
2021/12/25 00:06:26;;;;;;;62.70;48.08;;;;;;;4.39;74.73;100606.31;4969506;28;20130;-86
2021/12/25 00:08:53;;;;;;;59.75;46.95;;;;;;;5.49;75.32;100766.81;4986976;28;20132;-85
2021/12/25 00:11:20;;;;;;;59.22;46.58;;;;;;;5.53;75.26;100790.22;4969735;28;20520;-85
2021/12/25 00:13:46;;;;;;;59.42;45.55;;;;;;;4.65;75.01;100638.84;4969686;28;20137;-85
2021/12/25 00:16:13;;;;;;;56.38;44.22;;;;;;;3.68;74.74;100479.38;4986879;28;20146;-85
2021/12/25 00:18:40;;;;;;;57.95;45.13;;;;;;;5.15;74.91;100718.97;4986554;28;20134;-87
2021/12/25 00:21:07;;;;;;;57.05;46.15;;;;;;;5.57;74.95;100780.31;4969758;28;20050;-85
2021/12/25 00:23:38;;;;;;;60.05;45.92;;;;;;;5.37;75.02;100751.81;4969109;28;20137;-85
2021/12/25 00:26:14;;;;;;;61.20;46.80;;;;;;;4.18;74.85;100551.56;4961524;28;20050;-86
2021/12/25 00:36:19;;;;;;;59.55;47.33;;;;;;;5.46;75.16;100772.25;4968081;28;20577;-85
2021/12/25 00:38:47;;;;;;;58.13;46.70;;;;;;;5.45;75.43;100765.31;4950510;28;20050;-86
2021/12/25 00:41:19;;;;;;;58.85;46.28;;;;;;;5.37;75.74;100763.19;4955716;28;20053;-85
2021/12/25 00:43:46;;;;;;;59.05;46.72;;;;;;;5.60;75.26;100763.47;4954944;28;20090;-86
2021/12/25 00:46:14;;;;;;;60.83;46.53;;;;;;;5.50;75.13;100760.59;4954830;28;20059;-86
2021/12/25 00:48:41;;;;;;;64.05;46.33;;;;;;;5.48;75.33;100765.94;4971164;28;20565;-84
2021/12/25 00:51:08;;;;;;;65.05;47.50;;;;;;;5.48;75.45;100770.38;4954156;28;20302;-85
2021/12/25 00:53:34;;;;;;;59.33;47.00;;;;;;;5.50;74.94;100763.22;4955395;28;20081;-86
2021/12/25 00:56:05;;;;;;;59.25;48.78;;;;;;;5.55;75.58;100747.97;4956154;28;20410;-84
2021/12/25 00:58:31;;;;;;;54.83;45.47;;;;;;;4.12;75.24;100514.31;4956096;28;20078;-84
2021/12/25 01:00:58;;;;;;;60.50;48.88;;;;;;;4.86;75.47;100652.44;4971445;28;20078;-86
2021/12/25 01:03:26;;;;;;;59.75;47.25;;;;;;;4.99;75.47;100678.78;4954037;28;20242;-84
2021/12/25 01:05:53;;;;;;;56.40;44.03;;;;;;;5.47;76.03;100758.16;4954100;28;20114;-87
2021/12/25 01:08:24;;;;;;;58.80;44.97;;;;;;;4.68;75.89;100607.09;4955139;28;20066;-86
2021/12/25 01:10:51;;;;;;;58.80;45.47;;;;;;;4.99;75.66;100660.38;4971193;28;20498;-86
2021/12/25 01:13:25;;;;;;;54.75;44.40;;;;;;;5.49;75.79;100761.53;4964253;28;20173;-86
2021/12/25 01:16:17;;;;;;;51.97;44.20;;;;;;;4.27;76.10;100565.88;4976324;28;20034;-91
2021/12/25 01:24:58;;;;;;;59.88;45.88;;;;;;;3.37;75.59;100417.44;4948283;28;20566;-85
2021/12/25 01:48:40;;;;;;;55.45;46.13;;;;;;;4.89;76.28;100687.25;4989874;28;20152;-87
2021/12/25 01:51:13;;;;;;;61.35;47.50;;;;;;;4.56;76.37;100624.50;4989497;28;20050;-87
2021/12/25 01:53:40;;;;;;;59.83;46.03;;;;;;;5.31;76.22;100755.66;4972050;28;20141;-87
2021/12/25 01:56:07;;;;;;;60.60;46.80;;;;;;;5.11;76.18;100720.09;4972342;28;20108;-86
2021/12/25 01:58:34;;;;;;;60.67;45.28;;;;;;;5.17;76.11;100739.91;4989935;28;20057;-88
2021/12/25 02:01:04;;;;;;;57.30;44.80;;;;;;;5.30;76.05;100757.44;4971689;28;20074;-86
2021/12/25 02:03:36;;;;;;;55.40;44.00;;;;;;;4.68;75.81;100654.44;4972309;28;20283;-85
2021/12/25 02:06:08;;;;;;;57.40;46.10;;;;;;;4.48;76.03;100627.59;4989823;28;20486;-88
2021/12/25 02:08:35;;;;;;;55.13;44.78;;;;;;;5.31;75.78;100756.50;4972596;28;20065;-86
2021/12/25 02:11:03;;;;;;;52.88;44.15;;;;;;;5.23;75.70;100748.25;4972602;28;20549;-87
2021/12/25 02:13:35;;;;;;;55.80;45.97;;;;;;;4.81;75.65;100676.41;4989678;28;20136;-85
2021/12/25 02:16:06;;;;;;;61.78;48.40;;;;;;;5.34;75.55;100758.94;4971926;28;20413;-85
2021/12/25 02:18:56;;;;;;;57.23;46.00;;;;;;;5.15;75.78;100718.97;4972441;28;20061;-86
2021/12/25 02:21:25;;;;;;;59.17;46.50;;;;;;;4.89;75.28;100676.75;4989359;28;20050;-85
2021/12/25 02:23:52;;;;;;;;;;;;;;;5.33;75.70;100736.19;4972740;28;20081;-85
2021/12/25 02:26:20;;;;;;;59.22;45.03;;;;;;;4.09;75.13;100514.50;4989225;28;20020;-85
2021/12/25 02:28:47;;;;;;;57.17;46.30;;;;;;;4.07;75.19;100515.44;4971892;28;20039;-86
2021/12/25 02:31:16;;;;;;;56.15;45.03;;;;;;;5.46;75.32;100732.75;4988947;28;20454;-84
2021/12/25 02:33:43;;;;;;;61.35;44.95;;;;;;;5.13;75.19;100686.63;4989253;28;20046;-86
2021/12/25 02:36:12;;;;;;;57.22;46.38;;;;;;;5.29;74.99;100713.66;4989372;28;20056;-85
2021/12/25 02:38:40;;;;;;;59.17;45.03;;;;;;;5.26;75.07;100697.19;4971624;28;20264;-86
2021/12/25 02:41:08;;;;;;;55.55;45.45;;;;;;;5.45;74.91;100733.72;4971915;28;20054;-85
2021/12/25 02:43:38;;;;;;;59.95;45.53;;;;;;;5.45;74.62;100728.44;4972089;28;20129;-85
2021/12/25 02:46:06;;;;;;;57.58;44.90;;;;;;;3.91;74.19;100480.59;4972019;28;20047;-84
2021/12/25 02:48:37;;;;;;;57.10;44.63;;;;;;;4.79;74.94;100637.97;4989138;28;20176;-86
2021/12/25 02:51:05;;;;;;;57.92;45.00;;;;;;;3.70;74.84;100445.16;4972531;28;20050;-87
2021/12/25 02:53:32;;;;;;;57.22;44.65;;;;;;;5.40;74.88;100731.38;4990831;28;20054;-87
2021/12/25 02:55:59;;;;;;;62.28;48.17;;;;;;;4.64;74.66;100584.59;4974325;28;20101;-86
2021/12/25 02:58:26;;;;;;;58.10;47.00;;;;;;;4.66;74.95;100587.94;4991166;28;20502;-84
2021/12/25 03:01:00;;;;;;;57.88;44.83;;;;;;;5.41;74.03;100711.16;4973363;28;20068;-86
2021/12/25 03:03:27;;;;;;;56.58;45.10;;;;;;;4.24;74.36;100524.03;4972413;28;20058;-84
2021/12/25 03:05:54;;;;;;;58.38;45.78;;;;;;;3.78;74.06;100440.25;4971269;28;20294;-85
2021/12/25 03:08:21;;;;;;;64.93;48.85;;;;;;;4.06;73.40;100490.09;4971538;28;20306;-86
2021/12/25 03:10:53;;;;;;;60.53;45.70;;;;;;;5.37;73.48;100694.72;4971341;28;20089;-87
2021/12/25 03:14:32;;;;;;;57.95;45.60;;;;;;;4.31;73.75;100519.25;4971684;28;20414;-87
2021/12/25 03:16:15;;;;;;;56.50;44.20;;;;;;;4.91;73.79;100621.41;4979532;28;20138;-86
2021/12/25 03:18:45;;;;;;;59.35;45.97;;;;;;;4.66;73.46;100587.94;4971720;28;20050;-87
2021/12/25 03:21:14;;;;;;;65.65;46.53;;;;;;;5.47;73.38;100722.13;4988118;28;20481;-86
2021/12/25 03:23:41;;;;;;;63.72;47.10;;;;;;;5.26;73.62;100679.63;4970973;28;20510;-85
2021/12/25 03:26:08;;;;;;;63.78;46.90;;;;;;;5.31;73.88;100685.41;4970895;28;20053;-85
2021/12/25 03:28:39;;;;;;;58.10;47.80;;;;;;;4.98;73.65;100617.44;4970974;28;20402;-86
2021/12/25 03:31:15;;;;;;;63.92;47.42;;;;;;;5.48;73.31;100694.00;4971006;28;20104;-88
2021/12/25 03:33:47;;;;;;;59.63;47.47;;;;;;;5.16;73.10;100638.22;4970694;28;20486;-86
2021/12/25 03:36:14;;;;;;;61.60;47.67;;;;;;;5.50;73.16;100689.47;4988014;28;20597;-85
2021/12/25 03:38:41;;;;;;;62.50;46.95;;;;;;;4.71;72.75;100564.84;4970365;28;20112;-87
2021/12/25 03:41:08;;;;;;;59.60;45.50;;;;;;;3.80;72.96;100409.50;4987409;28;20120;-85
2021/12/25 03:43:38;;;;;;;57.38;45.17;;;;;;;4.93;72.86;100580.91;4988052;28;20445;-87
2021/12/25 03:46:10;;;;;;;62.75;47.22;;;;;;;5.11;72.54;100606.94;4970669;28;20482;-85
2021/12/25 03:49:02;;;;;;;61.85;48.22;;;;;;;5.44;72.75;100664.41;4971136;28;20101;-86
2021/12/25 03:59:53;;;;;;;58.47;46.78;;;;;;;4.66;72.68;100572.16;4987774;28;20141;-85
2021/12/25 04:02:26;;;;;;;59.00;46.58;;;;;;;4.44;72.86;100514.88;4987468;28;20058;-84
2021/12/25 04:04:52;;;;;;;62.03;48.38;;;;;;;4.09;72.32;100449.66;4987575;28;20050;-85
2021/12/25 04:09:47;;;;;;;65.40;46.78;;;;;;;5.49;72.13;100672.84;4987285;28;20081;-87
2021/12/25 04:12:16;;;;;;;62.85;47.90;;;;;;;3.99;72.45;100415.25;4970060;28;20050;-85
2021/12/25 04:14:47;;;;;;;60.08;47.15;;;;;;;4.83;73.09;100547.38;4987044;28;20113;-86
2021/12/25 04:17:14;;;;;;;59.55;45.22;;;;;;;4.76;71.90;100531.19;4970370;28;20078;-84
2021/12/25 04:19:41;;;;;;;67.00;47.90;;;;;;;5.02;72.24;100584.69;4970102;28;20105;-87
2021/12/25 04:22:15;;;;;;;63.25;50.42;;;;;;;3.82;71.94;100384.00;4987341;28;20154;-85
2021/12/25 04:24:44;;;;;;;62.92;49.70;;;;;;;5.57;71.82;100667.06;4987452;28;20112;-86
2021/12/25 04:27:14;;;;;;;61.55;48.05;;;;;;;3.84;71.85;100376.88;4970076;28;20688;-86
2021/12/25 04:29:48;;;;;;;61.97;47.17;;;;;;;4.85;72.44;100548.97;4987578;28;20108;-86
2021/12/25 04:32:49;;;;;;;61.13;45.90;;;;;;;4.52;72.00;100496.00;4970313;28;20145;-87
2021/12/25 05:05:14;;;;;;;57.40;43.63;;;;;;;5.40;73.13;100633.13;4989351;28;20565;-87
2021/12/25 05:07:41;;;;;;;58.53;47.35;;;;;;;5.07;73.11;100576.50;4988609;28;20052;-87
2021/12/25 05:10:08;;;;;;;57.33;45.53;;;;;;;5.50;73.10;100657.88;4971304;28;20422;-87
2021/12/25 05:12:37;;;;;;;61.28;47.10;;;;;;;4.84;73.28;100555.19;4989192;28;20129;-86
2021/12/25 05:15:06;;;;;;;58.75;43.88;;;;;;;5.23;73.34;100614.03;4972467;28;20054;-83
2021/12/25 05:17:33;;;;;;;61.83;47.55;;;;;;;5.42;73.33;100660.19;4971341;28;20058;-86
2021/12/25 05:20:00;;;;;;;62.88;46.60;;;;;;;5.44;73.28;100647.78;4970660;28;20078;-85
2021/12/25 05:22:27;;;;;;;62.53;46.70;;;;;;;5.44;73.28;100648.63;4970337;28;20130;-86
2021/12/25 05:24:54;;;;;;;59.13;46.30;;;;;;;3.79;73.36;100376.31;4986978;28;20050;-86
2021/12/25 05:27:21;;;;;;;58.40;46.83;;;;;;;4.89;72.97;100553.09;4971888;28;20065;-84
2021/12/25 05:29:58;;;;;;;58.72;46.05;;;;;;;3.90;72.85;100373.00;4974065;28;20046;-85
2021/12/25 05:32:25;;;;;;;63.42;46.88;;;;;;;5.47;72.84;100653.66;4975138;28;20051;-86
2021/12/25 05:34:57;;;;;;;64.22;50.08;;;;;;;4.85;72.76;100563.91;4973842;28;20517;-85
2021/12/25 05:37:28;;;;;;;63.13;46.03;;;;;;;5.41;72.58;100626.91;4972954;28;20545;-86
2021/12/25 05:39:54;;;;;;;65.00;49.63;;;;;;;4.22;72.84;100432.19;4973123;28;20465;-86
2021/12/25 05:42:23;;;;;;;61.47;47.65;;;;;;;4.36;72.45;100449.66;4990214;28;20383;-87
2021/12/25 05:44:52;;;;;;;60.90;48.22;;;;;;;4.97;72.01;100543.84;4973097;28;20058;-84
2021/12/25 05:47:21;;;;;;;61.45;45.97;;;;;;;3.81;72.60;100358.66;4990095;28;20047;-86
2021/12/25 05:49:48;;;;;;;61.95;49.33;;;;;;;4.88;72.89;100540.91;4990160;28;20054;-85
2021/12/25 05:52:15;;;;;;;66.82;47.47;;;;;;;4.33;72.36;100434.09;4972521;28;20054;-86
2021/12/25 05:54:44;;;;;;;60.38;47.83;;;;;;;5.50;72.24;100632.38;4973154;28;20133;-86
2021/12/25 05:57:11;;;;;;;65.18;50.53;;;;;;;4.26;71.84;100417.03;4972833;28;20062;-85
2021/12/25 05:59:37;;;;;;;60.08;47.47;;;;;;;5.80;72.30;100683.94;4972660;28;20054;-87
2021/12/25 06:02:04;;;;;;;66.47;49.38;;;;;;;4.19;72.18;100405.25;4970976;28;20420;-84
2021/12/25 06:04:34;;;;;;;63.38;47.60;;;;;;;5.77;72.43;100665.72;5005077;28;20103;-85
2021/12/25 06:07:02;;;;;;;66.65;50.53;;;;;;;5.06;72.37;100559.03;4977782;28;20117;-88
2021/12/25 06:09:31;;;;;;;69.05;51.58;;;;;;;4.12;72.52;100396.06;4988821;28;20369;-86
2021/12/25 06:11:58;;;;;;;60.10;48.55;;;;;;;5.25;72.13;100588.44;4971510;28;20066;-88
2021/12/25 06:14:25;;;;;;;66.97;49.42;;;;;;;4.98;72.31;100540.31;4971373;28;20160;-87
2021/12/25 06:16:51;;;;;;;65.82;50.65;;;;;;;4.57;71.90;100492.09;4971424;28;20050;-85
2021/12/25 06:19:19;;;;;;;67.45;51.00;;;;;;;5.19;72.17;100585.38;4971863;28;20062;-84
2021/12/25 06:21:46;;;;;;;69.28;50.60;;;;;;;5.08;71.45;100596.63;4971209;28;20208;-86
2021/12/25 06:24:14;;;;;;;61.97;49.38;;;;;;;5.54;71.71;100647.03;4988253;28;20140;-87
2021/12/25 06:26:43;;;;;;;68.40;49.17;;;;;;;4.25;71.24;100441.66;4988605;28;20056;-85
2021/12/25 06:29:10;;;;;;;61.78;47.25;;;;;;;4.82;71.07;100545.72;4971324;28;20054;-84
2021/12/25 06:31:37;;;;;;;63.50;48.28;;;;;;;3.86;70.34;100398.63;4970958;28;20509;-86
2021/12/25 06:34:08;;;;;;;62.85;47.33;;;;;;;5.31;70.77;100621.41;4988563;28;20073;-85
2021/12/25 06:36:35;;;;;;;62.28;46.50;;;;;;;5.01;70.41;100593.53;4970913;28;20057;-86
2021/12/25 06:39:05;;;;;;;58.40;45.60;;;;;;;4.90;70.49;100559.19;4987806;28;20141;-86
2021/12/25 06:41:31;;;;;;;64.45;46.90;;;;;;;4.85;70.64;100562.13;4987809;28;20046;-85
2021/12/25 06:43:58;;;;;;;63.15;48.90;;;;;;;4.84;70.79;100555.19;4970541;28;20082;-85
2021/12/25 06:46:25;;;;;;;59.88;46.00;;;;;;;5.62;70.48;100683.41;4988204;28;20058;-85
2021/12/25 06:48:52;;;;;;;66.00;48.20;;;;;;;5.02;70.45;100583.84;4970776;28;20089;-87
2021/12/25 06:51:18;;;;;;;64.88;49.15;;;;;;;4.92;70.57;100573.09;4987968;28;20108;-86
2021/12/25 06:53:45;;;;;;;64.55;46.80;;;;;;;5.49;70.93;100667.59;4987654;28;20086;-86
2021/12/25 06:56:12;;;;;;;59.67;47.17;;;;;;;4.35;70.66;100495.28;4987745;28;20486;-85
2021/12/25 06:58:38;;;;;;;62.55;46.65;;;;;;;4.05;71.06;100443.78;4987743;28;20054;-85
2021/12/25 07:01:05;;;;;;;62.90;49.58;;;;;;;4.60;71.04;100531.34;4987467;28;20124;-85
2021/12/25 07:03:32;;;;;;;63.50;47.78;;;;;;;5.46;70.85;100674.81;4970690;28;20257;-85
2021/12/25 07:05:59;;;;;;;61.35;46.70;;;;;;;4.92;70.94;100592.34;4988976;28;20145;-87
2021/12/25 07:08:28;;;;;;;63.58;47.58;;;;;;;5.49;71.13;100667.59;4971338;28;20088;-86
2021/12/25 07:10:58;;;;;;;60.63;48.28;;;;;;;5.37;71.09;100665.75;4988393;28;20137;-87
2021/12/25 07:13:24;;;;;;;62.17;47.63;;;;;;;3.78;70.97;100403.50;4988574;28;20307;-85
2021/12/25 07:15:51;;;;;;;62.08;45.83;;;;;;;4.15;70.74;100462.41;4988380;28;20504;-87
2021/12/25 07:18:18;;;;;;;64.28;46.10;;;;;;;4.39;70.79;100494.13;4971323;28;20073;-84
2021/12/25 07:20:48;;;;;;;62.40;47.45;;;;;;;5.35;70.73;100647.44;4970986;28;20113;-86
2021/12/25 07:23:15;;;;;;;60.20;46.45;;;;;;;5.70;70.59;100690.78;4971390;28;20168;-88
2021/12/25 07:25:42;;;;;;;64.47;45.47;;;;;;;5.19;70.54;100601.16;4988114;28;20056;-85
2021/12/25 07:28:09;;;;;;;58.25;46.15;;;;;;;4.72;70.24;100516.56;4988316;28;20050;-86
2021/12/25 07:30:36;;;;;;;61.80;46.55;;;;;;;5.68;70.37;100664.56;4988036;28;20054;-86
2021/12/25 07:33:03;;;;;;;61.95;46.78;;;;;;;5.51;69.92;100643.75;4988334;28;20260;-85
2021/12/25 07:35:30;;;;;;;66.72;47.70;;;;;;;5.73;69.57;100667.72;4970689;28;20053;-86
2021/12/25 07:37:58;;;;;;;57.30;44.95;;;;;;;5.51;70.27;100630.59;4970669;28;20092;-87
2021/12/25 07:40:24;;;;;;;55.72;45.03;;;;;;;5.03;70.34;100552.19;4970758;28;20076;-84
2021/12/25 07:42:54;;;;;;;62.67;46.00;;;;;;;4.81;70.19;100520.38;4970913;28;20116;-84
2021/12/25 07:45:21;;;;;;;62.88;46.67;;;;;;;5.53;69.80;100641.88;4970789;28;20518;-86
2021/12/25 07:47:57;;;;;;;60.28;46.05;;;;;;;5.79;70.05;100680.47;4988515;28;20054;-84
2021/12/25 07:50:24;;;;;;;60.72;46.00;;;;;;;5.55;69.99;100642.63;4988124;28;20137;-88
2021/12/25 07:52:51;;;;;;;62.15;46.17;;;;;;;3.83;69.40;100362.03;4987412;28;20050;-86
2021/12/25 07:55:18;;;;;;;58.67;45.50;;;;;;;4.71;69.78;100497.31;4970189;28;20136;-85
2021/12/25 07:57:45;;;;;;;57.40;45.90;;;;;;;5.65;69.35;100656.00;4970721;28;20485;-86
2021/12/25 08:00:14;;;;;;;56.60;43.28;;;;;;;5.50;70.09;100626.28;4970619;28;20065;-85
2021/12/25 08:02:42;;;;;;;55.88;45.28;;;;;;;5.86;69.70;100677.44;4972032;28;20090;-86
2021/12/25 08:05:09;;;;;;;60.45;46.70;;;;;;;5.26;69.45;100587.50;4983761;28;20072;-85
2021/12/25 08:07:36;;;;;;;61.05;46.78;;;;;;;5.46;68.95;100603.72;5012042;28;20041;-85
2021/12/25 08:10:16;;;;;;;58.45;43.60;;;;;;;5.46;69.39;100603.72;4989891;28;20498;-86
2021/12/25 08:12:47;;;;;;;60.88;45.97;;;;;;;5.82;69.70;100670.69;4987876;28;20054;-85
2021/12/25 08:15:16;;;;;;;59.50;44.00;;;;;;;5.75;69.49;100660.56;4970590;28;20541;-85
2021/12/25 08:17:43;;;;;;;64.45;46.28;;;;;;;5.74;69.79;100658.88;4987590;28;20584;-86
2021/12/25 08:20:13;;;;;;;59.60;44.80;;;;;;;5.82;69.70;100675.94;4970750;28;20533;-85
2021/12/25 08:22:44;;;;;;;58.88;44.92;;;;;;;5.68;69.68;100651.41;4969628;28;20582;-85
2021/12/25 08:25:12;;;;;;;65.13;47.05;;;;;;;5.75;69.91;100668.47;4987504;28;20467;-84
2021/12/25 08:27:40;;;;;;;58.45;46.05;;;;;;;5.81;69.74;100669.00;4970091;28;20149;-86
2021/12/25 08:30:10;;;;;;;61.22;44.35;;;;;;;5.49;69.83;100624.63;4987899;28;20170;-85
2021/12/25 08:32:38;;;;;;;59.50;44.53;;;;;;;5.13;69.71;100561.16;4970194;28;20442;-86
2021/12/25 08:35:06;;;;;;;66.93;45.70;;;;;;;5.53;69.70;100623.44;4969943;28;20161;-85
2021/12/25 08:37:33;;;;;;;64.93;46.72;;;;;;;5.65;69.62;100654.22;4987457;28;20438;-88
2021/12/25 08:40:00;;;;;;;61.15;46.03;;;;;;;5.81;69.70;100671.63;4970151;28;20056;-83
2021/12/25 08:42:27;;;;;;;59.03;44.28;;;;;;;5.83;69.66;100672.38;4987428;28;20521;-84
2021/12/25 08:47:28;;;;;;;62.42;46.42;;;;;;;5.86;69.63;100674.81;4986074;28;20125;-88
2021/12/25 08:49:56;;;;;;;60.60;46.42;;;;;;;5.86;69.83;100670.38;4969975;28;20050;-84
2021/12/25 08:52:24;;;;;;;61.00;46.95;;;;;;;5.41;69.80;100584.78;4969735;28;20506;-84
2021/12/25 08:54:52;;;;;;;63.58;46.08;;;;;;;5.87;69.62;100656.22;4970901;28;20136;-87
2021/12/25 08:57:24;;;;;;;58.97;45.20;;;;;;;5.53;69.04;100589.22;4988097;28;20149;-87
2021/12/25 08:59:52;;;;;;;57.95;45.20;;;;;;;5.60;69.14;100608.91;4970195;28;20429;-85
2021/12/25 09:02:19;;;;;;;65.32;45.63;;;;;;;5.96;69.04;100654.81;4991481;28;20098;-87
2021/12/25 09:04:48;;;;;;;63.72;45.70;;;;;;;5.32;69.08;100544.13;4974009;28;20478;-85
2021/12/25 09:07:15;;;;;;;60.60;43.80;;;;;;;6.06;68.95;100661.13;4973512;28;20140;-86
2021/12/25 09:09:42;;;;;;;59.90;43.80;;;;;;;5.84;69.21;100624.84;4991081;28;20054;-84
2021/12/25 09:12:13;;;;;;;59.95;44.92;;;;;;;6.16;68.51;100667.44;4973773;28;20137;-86
2021/12/25 09:14:40;;;;;;;60.00;44.28;;;;;;;5.79;69.06;100625.16;4974391;28;20057;-85
2021/12/25 09:17:09;;;;;;;54.78;42.33;;;;;;;6.02;69.07;100657.03;4990782;28;20054;-88
2021/12/25 09:19:36;;;;;;;58.88;44.72;;;;;;;6.07;69.21;100660.19;4973583;28;20386;-85
2021/12/25 09:22:04;;;;;;;59.75;44.92;;;;;;;5.96;68.67;100629.28;4973714;28;20528;-84
2021/12/25 09:24:30;;;;;;;60.83;45.42;;;;;;;6.09;69.11;100649.53;4973631;28;20177;-84
2021/12/25 09:26:57;;;;;;;59.42;46.42;;;;;;;5.96;68.96;100623.19;4990500;28;20431;-84
2021/12/25 09:29:24;;;;;;;64.60;47.05;;;;;;;6.24;67.97;100668.69;4989871;28;20056;-84
2021/12/25 09:31:51;;;;;;;59.65;45.53;;;;;;;6.26;68.34;100672.06;4972354;28;20050;-85
2021/12/25 09:34:17;;;;;;;61.53;44.97;;;;;;;6.16;68.68;100640.25;4989048;28;20085;-89
2021/12/25 09:36:44;;;;;;;57.70;46.03;;;;;;;5.27;68.76;100493.59;4972180;28;20070;-84
2021/12/25 09:39:11;;;;;;;58.70;45.80;;;;;;;4.49;68.20;100371.69;4972132;28;20062;-86
2021/12/25 09:41:37;;;;;;;64.30;46.67;;;;;;;5.64;68.57;100555.09;4971940;28;20082;-86
2021/12/25 09:44:05;;;;;;;63.17;46.15;;;;;;;5.40;68.21;100507.59;4973709;28;20109;-83
2021/12/25 09:46:32;;;;;;;61.40;45.42;;;;;;;6.44;67.39;100678.72;4973567;28;20058;-84
2021/12/25 09:48:59;;;;;;;61.80;46.30;;;;;;;5.30;67.47;100473.16;4990383;28;20081;-84
2021/12/25 09:51:26;;;;;;;59.92;46.33;;;;;;;4.98;67.47;100419.28;4973420;28;20105;-85
2021/12/25 09:54:02;;;;;;;62.03;47.53;;;;;;;5.83;67.72;100527.47;4972900;28;20057;-86
2021/12/25 09:56:29;;;;;;;60.08;46.50;;;;;;;6.50;67.10;100654.53;4990301;28;20137;-87
2021/12/25 09:58:56;;;;;;;64.10;46.38;;;;;;;5.90;67.24;100560.34;4972578;28;20117;-87
2021/12/25 10:01:44;;;;;;;62.40;47.90;;;;;;;4.75;67.00;100366.44;4990264;28;20058;-84
2021/12/25 10:04:37;;;;;;;61.10;47.75;;;;;;;5.09;67.12;100409.66;4974987;28;20050;-84
2021/12/25 10:07:23;;;;;;;60.45;47.00;;;;;;;5.03;67.10;100401.38;4973180;28;20136;-88
2021/12/25 10:10:14;;;;;;;61.40;46.97;;;;;;;5.61;67.38;100507.03;4972313;28;20093;-87
2021/12/25 10:12:45;;;;;;;65.40;46.63;;;;;;;5.46;67.87;100472.09;4971147;28;20715;-85
2021/12/25 10:15:21;;;;;;;67.68;49.22;;;;;;;5.37;68.15;100459.59;4971993;28;20449;-84
2021/12/25 10:17:54;;;;;;;63.90;48.20;;;;;;;5.18;67.82;100418.72;4989296;28;20541;-87
2021/12/25 10:20:26;;;;;;;65.05;49.20;;;;;;;5.34;67.81;100458.84;4971831;28;20493;-83
2021/12/25 10:22:59;;;;;;;61.72;46.38;;;;;;;6.41;68.13;100621.75;4972094;28;20137;-86
2021/12/25 10:25:35;;;;;;;68.60;48.90;;;;;;;5.61;67.55;100494.75;4971811;28;20340;-85
2021/12/25 10:28:06;;;;;;;60.97;47.80;;;;;;;5.27;67.46;100435.69;4988559;28;20395;-85
2021/12/25 10:30:51;;;;;;;64.17;48.53;;;;;;;4.96;67.97;100384.34;4970814;28;20077;-85
2021/12/25 10:33:30;;;;;;;64.50;48.63;;;;;;;5.66;68.47;100489.97;4977204;28;20568;-85
2021/12/25 10:36:06;;;;;;;62.63;48.47;;;;;;;5.09;68.46;100387.78;4990002;28;20077;-86
2021/12/25 10:38:33;;;;;;;66.53;49.38;;;;;;;5.45;68.13;100438.81;4990728;28;20085;-87
2021/12/25 10:41:19;;;;;;;61.50;48.17;;;;;;;4.66;68.05;100303.94;4989763;28;20137;-88
2021/12/25 10:43:48;;;;;;;66.88;47.90;;;;;;;5.76;68.22;100480.47;5007393;28;20145;-86
2021/12/25 10:46:15;;;;;;;71.35;51.78;;;;;;;5.53;68.05;100425.94;4990083;28;20075;-85
2021/12/25 10:48:42;;;;;;;67.53;49.60;;;;;;;5.13;67.73;100376.09;4988740;28;20092;-85
2021/12/25 10:51:30;;;;;;;67.18;50.63;;;;;;;5.44;68.13;100418.72;4987859;28;20057;-88
2021/12/25 10:53:58;;;;;;;65.07;50.38;;;;;;;5.48;68.12;100422.81;4970154;28;20109;-85
2021/12/25 10:56:35;;;;;;;68.50;49.10;;;;;;;5.78;67.78;100470.69;4987932;28;20138;-86
2021/12/25 10:59:06;;;;;;;66.25;47.90;;;;;;;5.27;68.15;100380.41;4988146;28;20053;-83
2021/12/25 11:01:51;;;;;;;67.95;50.17;;;;;;;4.62;68.13;100287.56;5005407;28;20061;-84
2021/12/25 11:04:35;;;;;;;66.32;49.22;;;;;;;5.16;68.66;100344.31;4986368;28;20061;-85
2021/12/25 11:07:15;;;;;;;67.70;50.05;;;;;;;5.88;68.29;100451.59;4991313;28;20122;-88
2021/12/25 11:10:06;;;;;;;62.47;49.50;;;;;;;6.61;68.52;100559.66;4987612;28;20556;-85
2021/12/25 11:12:34;;;;;;;69.60;48.55;;;;;;;5.40;67.85;100357.53;4988056;28;20117;-87
2021/12/25 11:15:15;;;;;;;67.70;50.53;;;;;;;6.69;68.62;100552.97;4987121;28;20058;-84
2021/12/25 11:17:49;;;;;;;68.57;50.72;;;;;;;5.63;68.42;100384.00;4986907;28;20058;-87
2021/12/25 11:20:23;;;;;;;63.85;49.58;;;;;;;6.53;68.12;100516.31;4984024;28;20081;-86
2021/12/25 11:22:52;;;;;;;68.32;50.70;;;;;;;5.89;68.05;100433.00;4989323;28;20050;-87
2021/12/25 11:25:22;;;;;;;66.50;49.55;;;;;;;5.30;68.57;100320.50;4989544;28;20141;-86
2021/12/25 11:27:49;;;;;;;64.45;50.35;;;;;;;5.58;68.97;100363.25;4980416;28;20212;-88
2021/12/25 11:30:21;;;;;;;60.17;49.53;;;;;;;5.31;68.61;100295.84;5012731;28;20081;-93
2021/12/25 11:32:49;;;;;;;69.95;50.95;;;;;;;6.60;68.76;100501.72;4983782;28;20064;-87
2021/12/25 11:35:18;;;;;;;64.65;51.08;;;;;;;6.72;69.00;100506.09;4988480;28;20060;-86
2021/12/25 11:37:48;;;;;;;65.50;51.55;;;;;;;6.10;68.87;100422.75;4991185;28;20104;-87
2021/12/25 11:40:18;;;;;;;70.95;52.75;;;;;;;6.15;68.73;100409.25;4973759;28;20053;-85
2021/12/25 11:42:49;;;;;;;68.15;50.38;;;;;;;5.82;67.94;100351.91;4990548;28;20132;-85
2021/12/25 11:45:20;;;;;;;63.92;50.17;;;;;;;5.45;68.41;100283.47;4973781;28;20101;-84
2021/12/25 11:47:51;;;;;;;69.20;50.72;;;;;;;5.59;68.53;100304.38;4989754;28;20058;-87
2021/12/25 11:50:41;;;;;;;64.00;51.42;;;;;;;4.74;68.40;100159.63;4972435;28;20070;-84
2021/12/25 11:53:20;;;;;;;71.43;52.72;;;;;;;5.05;68.33;100204.75;4990084;28;20058;-86
2021/12/25 11:58:39;;;;;;;67.75;50.35;;;;;;;5.31;68.50;100239.72;4988305;28;20069;-85
2021/12/25 12:01:24;;;;;;;66.30;51.03;;;;;;;6.01;68.71;100349.63;4971296;28;20042;-87
2021/12/25 12:03:56;;;;;;;74.93;53.15;;;;;;;6.06;69.07;100355.41;4970702;28;20532;-85
2021/12/25 12:06:45;;;;;;;61.08;50.10;;;;;;;6.86;68.90;100491.88;4970107;28;20100;-85
2021/12/25 12:09:22;;;;;;;59.88;46.95;;;;;;;6.33;69.17;100404.41;4987263;28;20141;-86
2021/12/25 12:12:15;;;;;;;68.20;52.20;;;;;;;6.63;69.89;100469.84;4970393;28;20042;-83
2021/12/25 12:14:42;;;;;;;68.15;51.22;;;;;;;4.96;70.71;100190.50;4988299;28;20069;-85
2021/12/25 12:17:26;;;;;;;71.22;51.97;;;;;;;5.34;71.22;100250.88;4988998;28;20092;-84
2021/12/25 12:19:54;;;;;;;70.47;53.05;;;;;;;6.75;71.36;100490.03;4990002;28;20046;-84
2021/12/25 12:22:46;;;;;;;69.50;53.35;;;;;;;6.19;72.33;100390.47;4971086;28;20050;-87
2021/12/25 12:28:11;;;;;;;71.35;53.05;;;;;;;5.97;72.57;100361.34;4987234;28;20102;-85
2021/12/25 12:30:42;;;;;;;68.13;53.65;;;;;;;4.95;71.81;100198.50;4987323;28;20496;-84
2021/12/25 12:33:15;;;;;;;68.88;52.00;;;;;;;6.72;71.63;100484.16;4970408;28;20109;-86
2021/12/25 12:35:45;;;;;;;70.20;53.22;;;;;;;5.78;72.43;100320.53;4971474;28;20050;-88
2021/12/25 12:38:43;;;;;;;67.85;51.58;;;;;;;6.78;72.76;100483.69;4991874;28;20060;-85
2021/12/25 12:41:10;;;;;;;68.13;52.20;;;;;;;6.85;73.52;100484.91;4974345;28;20459;-86
2021/12/25 12:43:52;;;;;;;69.90;52.15;;;;;;;5.07;72.71;100194.97;4973284;28;20085;-86
2021/12/25 12:46:24;;;;;;;68.53;51.75;;;;;;;5.18;73.23;100205.56;4993250;28;20597;-88
2021/12/25 12:49:05;;;;;;;71.00;53.97;;;;;;;5.38;73.64;100232.22;5010671;28;20079;-87
2021/12/25 12:51:35;;;;;;;67.63;53.28;;;;;;;5.57;73.37;100266.78;4993492;28;20119;-88
2021/12/25 12:54:06;;;;;;;71.07;54.17;;;;;;;5.16;72.75;100201.38;4993296;28;20528;-85
2021/12/25 12:56:33;;;;;;;68.82;53.20;;;;;;;5.59;73.70;100272.78;5010538;28;20532;-84